sensor_id;sensor_type;location;lat;lon;timestamp;pressure;altitude;pressure_sealevel;temperature;humidity
24045;BME280;26257;49.442;8.422;2023-05-15T00:02:25;100068.13;;;16.81;100.00
24045;BME280;26257;49.442;8.422;2023-05-15T00:04:52;100072.81;;;16.68;100.00
24045;BME280;26257;49.442;8.422;2023-05-15T00:07:17;100072.75;;;16.72;100.00
24045;BME280;26257;49.442;8.422;2023-05-15T00:09:43;100068.28;;;16.74;100.00
24045;BME280;26257;49.442;8.422;2023-05-15T00:12:08;100075.69;;;17.01;100.00
24045;BME280;26257;49.442;8.422;2023-05-15T00:14:34;100075.56;;;17.07;100.00
24045;BME280;26257;49.442;8.422;2023-05-15T00:16:59;100069.56;;;16.96;100.00
24045;BME280;26257;49.442;8.422;2023-05-15T00:19:25;100088.56;;;16.35;100.00
24045;BME280;26257;49.442;8.422;2023-05-15T00:21:50;100089.59;;;16.29;100.00
24045;BME280;26257;49.442;8.422;2023-05-15T00:24:16;100086.41;;;16.56;100.00
24045;BME280;26257;49.442;8.422;2023-05-15T00:26:41;100085.06;;;16.79;100.00
24045;BME280;26257;49.442;8.422;2023-05-15T00:29:07;100078.44;;;16.96;100.00
24045;BME280;26257;49.442;8.422;2023-05-15T00:31:32;100082.78;;;17.02;100.00
24045;BME280;26257;49.442;8.422;2023-05-15T00:33:58;100089.72;;;17.09;100.00
24045;BME280;26257;49.442;8.422;2023-05-15T00:36:24;100084.41;;;17.09;100.00
24045;BME280;26257;49.442;8.422;2023-05-15T00:38:50;100084.84;;;16.88;100.00
24045;BME280;26257;49.442;8.422;2023-05-15T00:41:16;100082.78;;;17.02;100.00
24045;BME280;26257;49.442;8.422;2023-05-15T00:43:44;100082.31;;;16.82;100.00
24045;BME280;26257;49.442;8.422;2023-05-15T00:46:11;100075.47;;;16.70;100.00
24045;BME280;26257;49.442;8.422;2023-05-15T00:48:37;100080.34;;;16.45;100.00
24045;BME280;26257;49.442;8.422;2023-05-15T00:51:03;100083.00;;;16.47;100.00
24045;BME280;26257;49.442;8.422;2023-05-15T00:53:29;100079.47;;;16.46;100.00
24045;BME280;26257;49.442;8.422;2023-05-15T00:55:56;100078.34;;;16.59;100.00
24045;BME280;26257;49.442;8.422;2023-05-15T00:58:23;100069.00;;;16.80;100.00
24045;BME280;26257;49.442;8.422;2023-05-15T01:00:49;100079.72;;;16.79;100.00
24045;BME280;26257;49.442;8.422;2023-05-15T01:03:15;100066.25;;;16.85;100.00
24045;BME280;26257;49.442;8.422;2023-05-15T01:05:41;100071.53;;;16.43;100.00
24045;BME280;26257;49.442;8.422;2023-05-15T01:10:57;100068.56;;;16.13;100.00
24045;BME280;26257;49.442;8.422;2023-05-15T01:13:23;100072.66;;;16.30;100.00
24045;BME280;26257;49.442;8.422;2023-05-15T01:15:49;100080.13;;;16.12;100.00
24045;BME280;26257;49.442;8.422;2023-05-15T01:18:14;100084.22;;;15.80;100.00
24045;BME280;26257;49.442;8.422;2023-05-15T01:20:57;100081.34;;;15.94;100.00
24045;BME280;26257;49.442;8.422;2023-05-15T01:29:03;100086.72;;;15.92;100.00
24045;BME280;26257;49.442;8.422;2023-05-15T01:31:33;100084.41;;;15.70;100.00
24045;BME280;26257;49.442;8.422;2023-05-15T01:34:06;100083.06;;;15.98;100.00
24045;BME280;26257;49.442;8.422;2023-05-15T01:36:37;100089.97;;;16.08;100.00
24045;BME280;26257;49.442;8.422;2023-05-15T01:39:04;100083.09;;;15.95;100.00
24045;BME280;26257;49.442;8.422;2023-05-15T01:41:38;100084.75;;;16.02;100.00
24045;BME280;26257;49.442;8.422;2023-05-15T01:44:24;100080.25;;;16.04;100.00
24045;BME280;26257;49.442;8.422;2023-05-15T01:46:55;100083.75;;;16.08;100.00
24045;BME280;26257;49.442;8.422;2023-05-15T01:49:25;100084.22;;;15.80;100.00
24045;BME280;26257;49.442;8.422;2023-05-15T01:52:05;100090.31;;;15.90;100.00
24045;BME280;26257;49.442;8.422;2023-05-15T01:54:33;100084.28;;;15.79;100.00
24045;BME280;26257;49.442;8.422;2023-05-15T01:57:00;100086.09;;;15.77;100.00
24045;BME280;26257;49.442;8.422;2023-05-15T01:59:28;100093.19;;;15.75;100.00
24045;BME280;26257;49.442;8.422;2023-05-15T02:01:55;100085.06;;;15.84;100.00
24045;BME280;26257;49.442;8.422;2023-05-15T02:04:22;100090.22;;;15.93;100.00
24045;BME280;26257;49.442;8.422;2023-05-15T02:06:49;100087.91;;;15.73;100.00
24045;BME280;26257;49.442;8.422;2023-05-15T02:09:15;100084.31;;;15.76;100.00
24045;BME280;26257;49.442;8.422;2023-05-15T02:11:42;100088.31;;;16.01;100.00
24045;BME280;26257;49.442;8.422;2023-05-15T02:14:09;100083.84;;;16.03;100.00
24045;BME280;26257;49.442;8.422;2023-05-15T02:16:36;100081.19;;;16.03;100.00
24045;BME280;26257;49.442;8.422;2023-05-15T02:19:02;100082.75;;;15.63;100.00
24045;BME280;26257;49.442;8.422;2023-05-15T02:21:28;100080.31;;;15.51;100.00
24045;BME280;26257;49.442;8.422;2023-05-15T02:23:53;100073.63;;;15.79;100.00
24045;BME280;26257;49.442;8.422;2023-05-15T02:26:25;100074.19;;;15.96;100.00
24045;BME280;26257;49.442;8.422;2023-05-15T02:29:18;100075.22;;;15.89;100.00
24045;BME280;26257;49.442;8.422;2023-05-15T02:32:18;100065.44;;;15.88;100.00
24045;BME280;26257;49.442;8.422;2023-05-15T02:37:27;100066.50;;;15.79;100.00
24045;BME280;26257;49.442;8.422;2023-05-15T02:39:56;100062.56;;;15.50;100.00
24045;BME280;26257;49.442;8.422;2023-05-15T02:42:25;100066.94;;;15.54;100.00
24045;BME280;26257;49.442;8.422;2023-05-15T02:44:52;100069.53;;;15.57;100.00
24045;BME280;26257;49.442;8.422;2023-05-15T02:47:19;100067.22;;;15.35;100.00
24045;BME280;26257;49.442;8.422;2023-05-15T02:49:46;100074.97;;;15.51;100.00
24045;BME280;26257;49.442;8.422;2023-05-15T02:52:12;100081.91;;;15.61;100.00
24045;BME280;26257;49.442;8.422;2023-05-15T02:54:37;100071.31;;;15.58;100.00
24045;BME280;26257;49.442;8.422;2023-05-15T02:57:03;100069.09;;;15.27;100.00
24045;BME280;26257;49.442;8.422;2023-05-15T02:59:28;100068.91;;;15.39;100.00
24045;BME280;26257;49.442;8.422;2023-05-15T03:01:54;100071.09;;;15.71;100.00
24045;BME280;26257;49.442;8.422;2023-05-15T03:04:19;100065.25;;;15.48;100.00
24045;BME280;26257;49.442;8.422;2023-05-15T03:06:45;100060.81;;;15.49;100.00
24045;BME280;26257;49.442;8.422;2023-05-15T03:09:10;100061.59;;;15.55;100.00
24045;BME280;26257;49.442;8.422;2023-05-15T03:11:35;100051.16;;;15.40;100.00
24045;BME280;26257;49.442;8.422;2023-05-15T03:14:01;100055.63;;;15.36;100.00
24045;BME280;26257;49.442;8.422;2023-05-15T03:16:27;100048.59;;;15.34;100.00
24045;BME280;26257;49.442;8.422;2023-05-15T03:18:52;100058.38;;;15.32;100.00
24045;BME280;26257;49.442;8.422;2023-05-15T03:21:18;100057.66;;;15.22;100.00
24045;BME280;26257;49.442;8.422;2023-05-15T03:23:44;100057.28;;;15.43;100.00
24045;BME280;26257;49.442;8.422;2023-05-15T03:26:09;100064.38;;;15.48;100.00
24045;BME280;26257;49.442;8.422;2023-05-15T03:28:36;100080.06;;;15.06;100.00
24045;BME280;26257;49.442;8.422;2023-05-15T03:31:01;100076.47;;;15.09;100.00
24045;BME280;26257;49.442;8.422;2023-05-15T03:33:29;100070.22;;;15.11;100.00
24045;BME280;26257;49.442;8.422;2023-05-15T03:35:54;100068.00;;;15.40;100.00
24045;BME280;26257;49.442;8.422;2023-05-15T03:38:20;100071.41;;;15.52;100.00
24045;BME280;26257;49.442;8.422;2023-05-15T03:40:45;100069.53;;;15.57;100.00
24045;BME280;26257;49.442;8.422;2023-05-15T03:43:10;100071.34;;;15.55;100.00
24045;BME280;26257;49.442;8.422;2023-05-15T03:45:37;100073.34;;;15.40;100.00
24045;BME280;26257;49.442;8.422;2023-05-15T03:48:04;100080.56;;;15.32;100.00
24045;BME280;26257;49.442;8.422;2023-05-15T03:50:29;100078.06;;;15.20;100.00
24045;BME280;26257;49.442;8.422;2023-05-15T03:52:54;100078.09;;;15.17;100.00
24045;BME280;26257;49.442;8.422;2023-05-15T03:55:20;100091.84;;;14.87;100.00
24045;BME280;26257;49.442;8.422;2023-05-15T03:57:45;100081.56;;;14.60;100.00
24045;BME280;26257;49.442;8.422;2023-05-15T04:00:11;100091.34;;;14.55;100.00
24045;BME280;26257;49.442;8.422;2023-05-15T04:02:37;100093.03;;;14.60;100.00
24045;BME280;26257;49.442;8.422;2023-05-15T04:05:03;100090.19;;;14.77;100.00
24045;BME280;26257;49.442;8.422;2023-05-15T04:07:31;100093.00;;;14.66;100.00
24045;BME280;26257;49.442;8.422;2023-05-15T04:09:57;100083.22;;;14.70;100.00
24045;BME280;26257;49.442;8.422;2023-05-15T04:12:27;100087.72;;;14.60;100.00
24045;BME280;26257;49.442;8.422;2023-05-15T04:14:57;100086.03;;;14.56;100.00
24045;BME280;26257;49.442;8.422;2023-05-15T04:17:23;100092.44;;;14.39;100.00
24045;BME280;26257;49.442;8.422;2023-05-15T04:19:49;100094.06;;;14.50;100.00
24045;BME280;26257;49.442;8.422;2023-05-15T04:22:14;100092.00;;;14.75;100.00
24045;BME280;26257;49.442;8.422;2023-05-15T04:24:40;100097.59;;;14.51;100.00
24045;BME280;26257;49.442;8.422;2023-05-15T04:27:05;100094.13;;;14.46;100.00
24045;BME280;26257;49.442;8.422;2023-05-15T04:29:31;100100.06;;;14.66;100.00
24045;BME280;26257;49.442;8.422;2023-05-15T04:31:56;100099.25;;;14.61;100.00
24045;BME280;26257;49.442;8.422;2023-05-15T04:34:22;100097.59;;;14.51;100.00
24045;BME280;26257;49.442;8.422;2023-05-15T04:36:47;100096.72;;;14.52;100.00
24045;BME280;26257;49.442;8.422;2023-05-15T04:39:13;100101.31;;;14.35;100.00
24045;BME280;26257;49.442;8.422;2023-05-15T04:41:38;100101.25;;;14.39;100.00
24045;BME280;26257;49.442;8.422;2023-05-15T04:44:04;100094.16;;;14.43;100.00
24045;BME280;26257;49.442;8.422;2023-05-15T04:46:30;100092.06;;;14.69;100.00
24045;BME280;26257;49.442;8.422;2023-05-15T04:48:59;100091.72;;;14.96;100.00
24045;BME280;26257;49.442;8.422;2023-05-15T04:51:24;100096.91;;;15.05;100.00
24045;BME280;26257;49.442;8.422;2023-05-15T04:53:49;100091.41;;;15.17;100.00
24045;BME280;26257;49.442;8.422;2023-05-15T04:56:15;100096.66;;;15.23;100.00
24045;BME280;26257;49.442;8.422;2023-05-15T04:58:40;100101.22;;;15.14;100.00
24045;BME280;26257;49.442;8.422;2023-05-15T05:01:06;100101.97;;;15.23;100.00
24045;BME280;26257;49.442;8.422;2023-05-15T05:03:31;100101.69;;;15.43;100.00
24045;BME280;26257;49.442;8.422;2023-05-15T05:05:57;100101.00;;;15.87;100.00
24045;BME280;26257;49.442;8.422;2023-05-15T05:08:22;100093.38;;;15.66;100.00
24045;BME280;26257;49.442;8.422;2023-05-15T05:10:48;100086.44;;;16.06;100.00
24045;BME280;26257;49.442;8.422;2023-05-15T05:13:18;100098.59;;;15.70;100.00
24045;BME280;26257;49.442;8.422;2023-05-15T05:15:44;100095.81;;;15.78;100.00
24045;BME280;26257;49.442;8.422;2023-05-15T05:18:10;100097.28;;;15.97;100.00
24045;BME280;26257;49.442;8.422;2023-05-15T05:20:35;100102.38;;;16.09;100.00
24045;BME280;26257;49.442;8.422;2023-05-15T05:23:01;100102.28;;;16.15;100.00
24045;BME280;26257;49.442;8.422;2023-05-15T05:25:26;100098.22;;;16.40;100.00
24045;BME280;26257;49.442;8.422;2023-05-15T05:27:52;100103.47;;;16.46;100.00
24045;BME280;26257;49.442;8.422;2023-05-15T05:30:17;100101.59;;;16.96;100.00
24045;BME280;26257;49.442;8.422;2023-05-15T05:32:43;100099.59;;;17.05;100.00
24045;BME280;26257;49.442;8.422;2023-05-15T05:35:08;100102.34;;;17.02;100.00
24045;BME280;26257;49.442;8.422;2023-05-15T05:37:34;100092.81;;;17.29;100.00
24045;BME280;26257;49.442;8.422;2023-05-15T05:39:59;100098.09;;;17.32;100.00
24045;BME280;26257;49.442;8.422;2023-05-15T05:42:25;100087.84;;;17.14;100.00
24045;BME280;26257;49.442;8.422;2023-05-15T05:44:51;100099.41;;;17.54;100.00
24045;BME280;26257;49.442;8.422;2023-05-15T05:47:16;100101.41;;;17.03;100.00
24045;BME280;26257;49.442;8.422;2023-05-15T05:49:41;100089.88;;;17.41;100.00
24045;BME280;26257;49.442;8.422;2023-05-15T05:52:07;100087.41;;;17.32;100.00
24045;BME280;26257;49.442;8.422;2023-05-15T05:54:33;100097.66;;;17.50;100.00
24045;BME280;26257;49.442;8.422;2023-05-15T05:56:59;100092.53;;;17.79;100.00
24045;BME280;26257;49.442;8.422;2023-05-15T05:59:24;100093.16;;;17.91;100.00
24045;BME280;26257;49.442;8.422;2023-05-15T06:01:50;100088.75;;;17.88;100.00
24045;BME280;26257;49.442;8.422;2023-05-15T06:04:17;100097.53;;;18.27;100.00
24045;BME280;26257;49.442;8.422;2023-05-15T06:06:43;100086.53;;;18.05;100.00
24045;BME280;26257;49.442;8.422;2023-05-15T06:09:09;100094.53;;;18.39;99.97
24045;BME280;26257;49.442;8.422;2023-05-15T06:11:34;100097.00;;;18.48;97.03
24045;BME280;26257;49.442;8.422;2023-05-15T06:14:00;100103.16;;;17.82;100.00
24045;BME280;26257;49.442;8.422;2023-05-15T06:16:25;100092.97;;;17.97;100.00
24045;BME280;26257;49.442;8.422;2023-05-15T06:18:51;100096.50;;;18.32;100.00
24045;BME280;26257;49.442;8.422;2023-05-15T06:21:17;100104.53;;;17.99;99.67
24045;BME280;26257;49.442;8.422;2023-05-15T06:23:42;100096.72;;;18.25;96.95
24045;BME280;26257;49.442;8.422;2023-05-15T06:26:08;100105.31;;;18.36;100.00
24045;BME280;26257;49.442;8.422;2023-05-15T06:28:33;100096.47;;;18.66;96.52
24045;BME280;26257;49.442;8.422;2023-05-15T06:30:59;100089.97;;;19.05;89.86
24045;BME280;26257;49.442;8.422;2023-05-15T06:33:24;100081.44;;;18.91;92.34
24045;BME280;26257;49.442;8.422;2023-05-15T06:35:50;100080.25;;;19.01;91.65
24045;BME280;26257;49.442;8.422;2023-05-15T06:38:15;100085.28;;;19.12;90.17
24045;BME280;26257;49.442;8.422;2023-05-15T06:40:41;100084.88;;;19.26;90.41
24045;BME280;26257;49.442;8.422;2023-05-15T06:43:06;100091.00;;;19.00;99.45
24045;BME280;26257;49.442;8.422;2023-05-15T06:45:31;100093.47;;;19.35;95.84
24045;BME280;26257;49.442;8.422;2023-05-15T06:47:57;100096.50;;;19.25;90.09
24045;BME280;26257;49.442;8.422;2023-05-15T06:50:22;100096.78;;;18.86;92.86
24045;BME280;26257;49.442;8.422;2023-05-15T06:52:48;100088.34;;;19.29;91.22
24045;BME280;26257;49.442;8.422;2023-05-15T06:55:13;100093.69;;;19.29;87.84
24045;BME280;26257;49.442;8.422;2023-05-15T06:57:39;100097.88;;;19.08;90.66
24045;BME280;26257;49.442;8.422;2023-05-15T07:00:05;100094.00;;;18.89;92.32
24045;BME280;26257;49.442;8.422;2023-05-15T07:02:30;100094.22;;;19.11;92.26
24045;BME280;26257;49.442;8.422;2023-05-15T07:04:56;100094.75;;;19.24;91.63
24045;BME280;26257;49.442;8.422;2023-05-15T07:07:21;100092.44;;;19.41;91.08
24045;BME280;26257;49.442;8.422;2023-05-15T07:09:46;100089.28;;;19.27;92.58
24045;BME280;26257;49.442;8.422;2023-05-15T07:12:14;100102.38;;;19.65;91.69
24045;BME280;26257;49.442;8.422;2023-05-15T07:14:40;100097.75;;;19.70;88.95
24045;BME280;26257;49.442;8.422;2023-05-15T07:17:05;100089.97;;;19.62;85.80
24045;BME280;26257;49.442;8.422;2023-05-15T07:19:30;100092.03;;;19.53;85.84
24045;BME280;26257;49.442;8.422;2023-05-15T07:21:56;100093.81;;;18.95;89.46
24045;BME280;26257;49.442;8.422;2023-05-15T07:24:21;100089.41;;;18.94;92.41
24045;BME280;26257;49.442;8.422;2023-05-15T07:26:47;100090.41;;;19.49;84.94
24045;BME280;26257;49.442;8.422;2023-05-15T07:29:12;100086.81;;;19.50;85.56
24045;BME280;26257;49.442;8.422;2023-05-15T07:31:37;100090.50;;;19.46;87.92
24045;BME280;26257;49.442;8.422;2023-05-15T07:34:04;100080.72;;;19.71;89.01
24045;BME280;26257;49.442;8.422;2023-05-15T07:36:30;100083.38;;;19.99;87.27
24045;BME280;26257;49.442;8.422;2023-05-15T07:38:57;100086.22;;;19.68;84.07
24045;BME280;26257;49.442;8.422;2023-05-15T07:41:22;100082.31;;;20.04;81.28
24045;BME280;26257;49.442;8.422;2023-05-15T07:43:48;100076.09;;;20.28;79.79
24045;BME280;26257;49.442;8.422;2023-05-15T07:46:13;100077.66;;;20.36;80.90
24045;BME280;26257;49.442;8.422;2023-05-15T07:48:38;100073.63;;;19.70;77.78
24045;BME280;26257;49.442;8.422;2023-05-15T07:51:04;100070.97;;;19.96;76.23
24045;BME280;26257;49.442;8.422;2023-05-15T07:53:30;100070.13;;;20.20;77.23
24045;BME280;26257;49.442;8.422;2023-05-15T07:55:58;100069.34;;;20.42;73.24
24045;BME280;26257;49.442;8.422;2023-05-15T07:58:24;100065.53;;;20.49;77.00
24045;BME280;26257;49.442;8.422;2023-05-15T08:00:50;100063.28;;;20.61;75.02
24045;BME280;26257;49.442;8.422;2023-05-15T08:03:15;100074.72;;;20.42;77.68
24045;BME280;26257;49.442;8.422;2023-05-15T08:05:41;100069.50;;;20.39;78.64
24045;BME280;26257;49.442;8.422;2023-05-15T08:08:06;100082.41;;;20.27;78.64
24045;BME280;26257;49.442;8.422;2023-05-15T08:10:32;100060.41;;;20.66;76.96
24045;BME280;26257;49.442;8.422;2023-05-15T08:12:57;100058.84;;;20.83;76.52
24045;BME280;26257;49.442;8.422;2023-05-15T08:15:24;100066.47;;;20.48;76.45
24045;BME280;26257;49.442;8.422;2023-05-15T08:17:50;100078.38;;;19.88;81.81
24045;BME280;26257;49.442;8.422;2023-05-15T08:20:16;100061.13;;;20.71;76.81
24045;BME280;26257;49.442;8.422;2023-05-15T08:22:41;100050.97;;;21.02;75.20
24045;BME280;26257;49.442;8.422;2023-05-15T08:25:07;100070.44;;;20.61;76.04
24045;BME280;26257;49.442;8.422;2023-05-15T08:27:33;100059.31;;;20.94;73.22
24045;BME280;26257;49.442;8.422;2023-05-15T08:29:58;100062.78;;;20.75;72.65
24045;BME280;26257;49.442;8.422;2023-05-15T08:32:24;100054.16;;;20.88;72.28
24045;BME280;26257;49.442;8.422;2023-05-15T08:54:29;100050.97;;;20.31;87.99
24045;BME280;26257;49.442;8.422;2023-05-15T08:56:55;100047.22;;;20.60;84.29
24045;BME280;26257;49.442;8.422;2023-05-15T08:59:21;100043.03;;;20.99;80.34
24045;BME280;26257;49.442;8.422;2023-05-15T09:01:47;100043.28;;;21.16;78.02
24045;BME280;26257;49.442;8.422;2023-05-15T09:04:14;100041.84;;;21.08;77.92
24045;BME280;26257;49.442;8.422;2023-05-15T09:06:39;100038.09;;;21.33;76.44
24045;BME280;26257;49.442;8.422;2023-05-15T09:09:06;100039.88;;;21.34;75.05
24045;BME280;26257;49.442;8.422;2023-05-15T09:11:34;100042.81;;;20.82;76.39
24045;BME280;26257;49.442;8.422;2023-05-15T09:14:00;100041.28;;;21.21;72.69
24045;BME280;26257;49.442;8.422;2023-05-15T09:16:26;100035.19;;;21.39;73.44
24045;BME280;26257;49.442;8.422;2023-05-15T09:18:53;100038.31;;;21.50;72.91
24045;BME280;26257;49.442;8.422;2023-05-15T09:21:26;100032.34;;;21.86;73.17
24045;BME280;26257;49.442;8.422;2023-05-15T09:24:15;100031.44;;;22.27;69.68
24045;BME280;26257;49.442;8.422;2023-05-15T09:26:43;100035.22;;;22.23;66.15
24045;BME280;26257;49.442;8.422;2023-05-15T09:29:10;100022.28;;;22.31;66.66
24045;BME280;26257;49.442;8.422;2023-05-15T09:31:36;100022.78;;;22.59;66.29
24045;BME280;26257;49.442;8.422;2023-05-15T09:34:02;100028.00;;;22.64;65.73
24045;BME280;26257;49.442;8.422;2023-05-15T09:36:30;100021.97;;;22.78;63.54
24045;BME280;26257;49.442;8.422;2023-05-15T09:38:58;100033.66;;;22.38;68.53
24045;BME280;26257;49.442;8.422;2023-05-15T09:41:25;100030.00;;;22.98;63.07
24045;BME280;26257;49.442;8.422;2023-05-15T09:43:52;100019.06;;;23.01;63.83
24045;BME280;26257;49.442;8.422;2023-05-15T09:46:22;100022.97;;;23.31;60.63
24045;BME280;26257;49.442;8.422;2023-05-15T09:48:48;100005.38;;;23.05;62.15
24045;BME280;26257;49.442;8.422;2023-05-15T09:51:16;100010.47;;;23.30;57.79
24045;BME280;26257;49.442;8.422;2023-05-15T09:53:47;100003.56;;;23.60;60.57
24045;BME280;26257;49.442;8.422;2023-05-15T09:56:13;100001.53;;;24.00;54.49
24045;BME280;26257;49.442;8.422;2023-05-15T09:58:54;99999.47;;;23.70;55.53
24045;BME280;26257;49.442;8.422;2023-05-15T10:01:21;100008.00;;;23.07;56.04
24045;BME280;26257;49.442;8.422;2023-05-15T10:03:57;100002.47;;;23.64;57.11
24045;BME280;26257;49.442;8.422;2023-05-15T10:06:23;99994.41;;;23.81;57.07
24045;BME280;26257;49.442;8.422;2023-05-15T10:08:52;100001.38;;;24.03;57.38
24045;BME280;26257;49.442;8.422;2023-05-15T10:11:19;99989.34;;;24.27;57.32
24045;BME280;26257;49.442;8.422;2023-05-15T10:13:49;99981.59;;;24.69;54.42
24045;BME280;26257;49.442;8.422;2023-05-15T10:16:16;99984.13;;;24.89;52.75
24045;BME280;26257;49.442;8.422;2023-05-15T10:18:47;99977.66;;;25.23;53.14
24045;BME280;26257;49.442;8.422;2023-05-15T10:21:18;99967.06;;;25.95;50.04
24045;BME280;26257;49.442;8.422;2023-05-15T10:23:44;99968.16;;;26.51;49.70
24045;BME280;26257;49.442;8.422;2023-05-15T10:26:22;99967.94;;;26.40;48.38
24045;BME280;26257;49.442;8.422;2023-05-15T10:28:51;99972.09;;;26.73;46.46
24045;BME280;26257;49.442;8.422;2023-05-15T10:31:19;99973.41;;;25.80;45.93
24045;BME280;26257;49.442;8.422;2023-05-15T10:33:44;99973.09;;;24.44;47.54
24045;BME280;26257;49.442;8.422;2023-05-15T10:36:12;99963.00;;;24.80;46.73
24045;BME280;26257;49.442;8.422;2023-05-15T10:38:39;99952.94;;;25.90;44.61
24045;BME280;26257;49.442;8.422;2023-05-15T10:41:06;99956.34;;;27.35;43.16
24045;BME280;26257;49.442;8.422;2023-05-15T10:43:35;99938.00;;;28.42;39.71
24045;BME280;26257;49.442;8.422;2023-05-15T10:46:03;99932.19;;;29.81;37.14
24045;BME280;26257;49.442;8.422;2023-05-15T10:48:29;99932.69;;;29.27;35.54
24045;BME280;26257;49.442;8.422;2023-05-15T10:50:55;99933.13;;;28.72;35.60
24045;BME280;26257;49.442;8.422;2023-05-15T10:53:23;99938.94;;;27.51;39.83
24045;BME280;26257;49.442;8.422;2023-05-15T10:55:49;99934.09;;;26.61;42.16
24045;BME280;26257;49.442;8.422;2023-05-15T10:58:14;99929.25;;;26.52;43.76
24045;BME280;26257;49.442;8.422;2023-05-15T11:00:43;99924.09;;;28.09;39.72
24045;BME280;26257;49.442;8.422;2023-05-15T11:03:13;99918.56;;;28.48;36.08
24045;BME280;26257;49.442;8.422;2023-05-15T11:06:10;99922.81;;;28.02;36.80
24045;BME280;26257;49.442;8.422;2023-05-15T11:08:38;99920.34;;;27.45;37.39
24045;BME280;26257;49.442;8.422;2023-05-15T11:11:03;99916.38;;;27.51;38.42
24045;BME280;26257;49.442;8.422;2023-05-15T11:14:10;99928.78;;;27.14;40.48
24045;BME280;26257;49.442;8.422;2023-05-15T11:27:20;99886.09;;;29.67;30.41
24045;BME280;26257;49.442;8.422;2023-05-15T11:30:03;99884.59;;;29.39;31.93
24045;BME280;26257;49.442;8.422;2023-05-15T11:35:11;99869.50;;;29.35;32.42
24045;BME280;26257;49.442;8.422;2023-05-15T11:37:47;99873.41;;;29.78;34.05
24045;BME280;26257;49.442;8.422;2023-05-15T11:40:22;99867.50;;;30.07;30.41
24045;BME280;26257;49.442;8.422;2023-05-15T11:43:01;99873.56;;;31.53;27.67
24045;BME280;26257;49.442;8.422;2023-05-15T11:45:33;99881.13;;;31.17;27.62
24045;BME280;26257;49.442;8.422;2023-05-15T11:48:01;99888.91;;;28.70;31.80
24045;BME280;26257;49.442;8.422;2023-05-15T11:50:29;99897.19;;;28.31;33.72
24045;BME280;26257;49.442;8.422;2023-05-15T11:52:56;99886.44;;;28.78;31.79
24045;BME280;26257;49.442;8.422;2023-05-15T11:55:22;99889.09;;;28.42;34.05
24045;BME280;26257;49.442;8.422;2023-05-15T11:57:48;99899.00;;;27.00;33.63
24045;BME280;26257;49.442;8.422;2023-05-15T12:00:13;99890.53;;;28.97;31.26
24045;BME280;26257;49.442;8.422;2023-05-15T12:02:40;99883.09;;;29.93;28.84
24045;BME280;26257;49.442;8.422;2023-05-15T12:05:06;99876.47;;;30.64;29.06
24045;BME280;26257;49.442;8.422;2023-05-15T12:07:40;99889.88;;;29.29;29.76
24045;BME280;26257;49.442;8.422;2023-05-15T12:10:08;99894.63;;;27.78;32.83
24045;BME280;26257;49.442;8.422;2023-05-15T12:12:35;99884.03;;;29.23;30.65
24045;BME280;26257;49.442;8.422;2023-05-15T12:15:01;99886.22;;;31.11;30.62
24045;BME280;26257;49.442;8.422;2023-05-15T12:17:26;99882.25;;;29.93;28.98
24045;BME280;26257;49.442;8.422;2023-05-15T12:19:54;99888.34;;;29.02;31.37
24045;BME280;26257;49.442;8.422;2023-05-15T12:22:20;99898.31;;;27.37;34.18
24045;BME280;26257;49.442;8.422;2023-05-15T12:24:46;99910.66;;;25.73;37.44
24045;BME280;26257;49.442;8.422;2023-05-15T12:27:12;99900.53;;;25.47;37.40
24045;BME280;26257;49.442;8.422;2023-05-15T12:29:39;99914.28;;;25.88;35.87
24045;BME280;26257;49.442;8.422;2023-05-15T12:32:06;99898.28;;;26.84;33.92
24045;BME280;26257;49.442;8.422;2023-05-15T12:34:32;99895.22;;;27.03;34.88
24045;BME280;26257;49.442;8.422;2023-05-15T12:36:58;99898.63;;;27.06;34.80
24045;BME280;26257;49.442;8.422;2023-05-15T12:39:25;99882.06;;;28.14;33.98
24045;BME280;26257;49.442;8.422;2023-05-15T12:41:51;99879.50;;;28.74;32.43
24045;BME280;26257;49.442;8.422;2023-05-15T12:44:19;99876.22;;;29.77;31.91
24045;BME280;26257;49.442;8.422;2023-05-15T12:46:46;99883.75;;;30.08;30.36
24045;BME280;26257;49.442;8.422;2023-05-15T12:49:12;99868.84;;;31.12;32.06
24045;BME280;26257;49.442;8.422;2023-05-15T12:51:43;99871.16;;;30.40;30.16
24045;BME280;26257;49.442;8.422;2023-05-15T12:54:19;99871.97;;;30.30;30.16
24045;BME280;26257;49.442;8.422;2023-05-15T12:56:48;99869.75;;;29.67;30.75
24045;BME280;26257;49.442;8.422;2023-05-15T12:59:14;99856.34;;;29.87;30.22
24045;BME280;26257;49.442;8.422;2023-05-15T13:01:40;99860.53;;;29.80;30.55
24045;BME280;26257;49.442;8.422;2023-05-15T13:04:08;99860.63;;;30.58;29.75
24045;BME280;26257;49.442;8.422;2023-05-15T13:06:37;99859.75;;;31.23;29.56
24045;BME280;26257;49.442;8.422;2023-05-15T13:09:03;99854.66;;;31.61;27.72
24045;BME280;26257;49.442;8.422;2023-05-15T13:11:31;99844.94;;;31.89;26.61
24045;BME280;26257;49.442;8.422;2023-05-15T13:13:56;99847.78;;;31.87;28.67
24045;BME280;26257;49.442;8.422;2023-05-15T13:16:26;99854.19;;;31.45;30.87
24045;BME280;26257;49.442;8.422;2023-05-15T13:18:57;99848.84;;;32.47;27.39
24045;BME280;26257;49.442;8.422;2023-05-15T13:21:23;99857.84;;;31.66;26.67
24045;BME280;26257;49.442;8.422;2023-05-15T13:23:49;99862.34;;;30.70;29.78
24045;BME280;26257;49.442;8.422;2023-05-15T13:26:15;99859.19;;;31.51;27.71
24045;BME280;26257;49.442;8.422;2023-05-15T13:28:41;99845.16;;;31.44;27.96
24045;BME280;26257;49.442;8.422;2023-05-15T13:31:06;99846.00;;;32.18;28.42
24045;BME280;26257;49.442;8.422;2023-05-15T13:33:32;99851.63;;;31.75;29.23